Wec Goya — CQIE5 — position and weather

sailwx.info

Track history (hours):
 
Tides and Currents Weather Stations Pressure Air Temp Water Temp Dewpoint Dewpoint Depression Visibility Wind Speed Wind Dir Waves Ship Positions

Wec Goya

Last reported at 2017-Sep-20 07:35 UTC. Time now 2017-Sep-23 16:31 UTC.
Position N 34°24' W 007°56'.

Length 135 m; draft 7.9 m.

Type: Ship. MMSI: 255805937.

Date/timePositionNaut miles runAvg speedWind from/ knotsBaromVisibWave heightAir tempDewpointWater temp
2017-Sep-20 07:35N 34°24' W 007°56'114.3
2017-Sep-20 07:30N 34°25' W 007°56'1214.2
2017-Sep-20 06:39N 34°36' W 008°02'214.5
2017-Sep-20 06:30N 34°38' W 008°03'6214.4
2017-Sep-20 02:11N 35°35' W 008°33'313.9
2017-Sep-20 02:00N 35°37' W 008°35'714.0
2017-Sep-20 01:30N 35°44' W 008°38'1114.1
2017-Sep-20 00:46N 35°53' W 008°43'514.1
2017-Sep-20 00:26N 35°57' W 008°46'714.0
2017-Sep-19 23:57N 36°03' W 008°50'1013.8
2017-Sep-19 23:12N 36°13' W 008°55'714.1
2017-Sep-19 22:44N 36°19' W 008°58'314.1
2017-Sep-19 22:30N 36°22' W 008°60'714.3
2017-Sep-19 22:00N 36°29' W 009°03'713.4
2017-Sep-19 21:30N 36°32' W 009°11'1413.6
2017-Sep-19 20:28N 36°40' W 009°24'1613.7
2017-Sep-19 19:18N 36°55' W 009°34'513.3
2017-Sep-19 18:58N 36°59' W 009°34'613.9
2017-Sep-19 18:30N 37°05' W 009°30'713.7
2017-Sep-19 17:58N 37°11' W 009°26'613.6
2017-Sep-19 17:30N 37°17' W 009°22'713.8
2017-Sep-19 16:59N 37°23' W 009°17'713.9
2017-Sep-19 16:30N 37°28' W 009°12'714.6
2017-Sep-19 16:00N 37°35' W 009°08'917.0
2017-Sep-19 15:30N 37°42' W 009°02'817.0
2017-Sep-19 15:01N 37°49' W 008°56'816.0
2017-Sep-19 14:30N 37°55' W 008°50'0 0.9
2017-Sep-19 13:59N 37°56' W 008°51'0 0.0
2017-Sep-19 13:29N 37°56' W 008°51'0 0.0
2017-Sep-19 12:59N 37°56' W 008°51'0 0.0
2017-Sep-19 12:29N 37°56' W 008°51'0 0.0
2017-Sep-19 11:58N 37°56' W 008°51'0 0.0
2017-Sep-19 11:28N 37°56' W 008°51'0 0.0
2017-Sep-19 10:58N 37°56' W 008°51'0 0.0
2017-Sep-19 10:28N 37°56' W 008°51'0 0.0
2017-Sep-19 10:00N 37°56' W 008°51'0 0.0
2017-Sep-19 09:30N 37°56' W 008°51'0 0.0
2017-Sep-19 09:01N 37°56' W 008°51'0 0.4
2017-Sep-19 08:31N 37°56' W 008°51'2 3.8
2017-Sep-19 08:01N 37°54' W 008°51'3 6.5
2017-Sep-19 07:30N 37°56' W 008°55'816.6
2017-Sep-19 07:00N 38°02' W 009°02'816.7
2017-Sep-19 06:30N 38°08' W 009°09'917.2
2017-Sep-19 06:00N 38°15' W 009°16'917.0
2017-Sep-19 05:30N 38°21' W 009°23'817.0
2017-Sep-19 05:00N 38°28' W 009°30'816.2
2017-Sep-19 04:31N 38°34' W 009°37'816.6
2017-Sep-19 04:00N 38°41' W 009°42'917.1
2017-Sep-19 03:30N 38°50' W 009°43'816.8
2017-Sep-19 03:00N 38°58' W 009°44'816.6
2017-Sep-19 02:31N 39°06' W 009°45'816.2
2017-Sep-19 02:00N 39°14' W 009°45'816.3
2017-Sep-19 01:31N 39°22' W 009°45'816.6
2017-Sep-19 01:01N 39°31' W 009°44'816.7
2017-Sep-19 00:30N 39°39' W 009°42'288 6.6
2017-Sep-17 05:07N 43°46' W 006°25'111.8
2017-Sep-17 05:00N 43°46' W 006°23'611.7
2017-Sep-17 04:30N 43°46' W 006°15'612.0
2017-Sep-17 04:00N 43°46' W 006°06'611.8
2017-Sep-17 03:30N 43°45' W 005°58'611.8
2017-Sep-17 03:00N 43°44' W 005°50'611.8
2017-Sep-17 02:30N 43°44' W 005°42'611.6
2017-Sep-17 02:00N 43°43' W 005°34'611.5
2017-Sep-17 01:30N 43°43' W 005°26'611.5
2017-Sep-17 01:00N 43°42' W 005°18'7411.4
2017-Sep-16 18:32N 43°33' W 003°37'011.0
2017-Sep-16 18:29N 43°33' W 003°36'511.1
2017-Sep-16 18:00N 43°33' W 003°29'611.3
2017-Sep-16 17:30N 43°32' W 003°21'611.5
2017-Sep-16 17:00N 43°29' W 003°15'611.8
2017-Sep-16 16:30N 43°25' W 003°08'611.3
2017-Sep-16 16:00N 43°21' W 003°03'0 0.8
2017-Sep-16 15:28N 43°21' W 003°03'0 0.0
2017-Sep-16 14:58N 43°21' W 003°03'0 0.0
2017-Sep-16 14:28N 43°21' W 003°03'0 0.0
2017-Sep-16 14:00N 43°21' W 003°03'0 0.0
2017-Sep-16 13:30N 43°21' W 003°03'0 0.0
2017-Sep-16 13:00N 43°21' W 003°03'0 0.0
2017-Sep-16 12:30N 43°21' W 003°03'0 0.0
2017-Sep-16 11:59N 43°21' W 003°03'0 0.0
2017-Sep-16 11:29N 43°21' W 003°03'0 0.0
2017-Sep-16 10:59N 43°21' W 003°03'0 0.0
2017-Sep-16 10:29N 43°21' W 003°03'0 0.0
2017-Sep-16 09:59N 43°21' W 003°03'0 0.0
2017-Sep-16 09:28N 43°21' W 003°03'0 0.0
2017-Sep-16 08:58N 43°21' W 003°03'0 0.0
2017-Sep-16 08:28N 43°21' W 003°03'0 0.0
2017-Sep-16 07:58N 43°21' W 003°03'0 0.0
2017-Sep-16 07:31N 43°21' W 003°03'0 0.0
2017-Sep-16 07:00N 43°21' W 003°03'0 0.0
2017-Sep-16 06:30N 43°21' W 003°03'0 0.0
2017-Sep-16 06:00N 43°21' W 003°03'0 0.0
2017-Sep-16 05:30N 43°21' W 003°03'0 0.0
2017-Sep-16 05:00N 43°21' W 003°03'0 0.4
2017-Sep-16 04:31N 43°21' W 003°03'4 7.3
2017-Sep-16 04:00N 43°24' W 003°06'612.6
2017-Sep-16 03:30N 43°29' W 003°12'611.7
2017-Sep-16 03:00N 43°32' W 003°18'611.0
2017-Sep-16 02:30N 43°35' W 003°24'611.3
2017-Sep-16 02:00N 43°35' W 003°32'611.4
2017-Sep-16 01:30N 43°36' W 003°40'611.5
2017-Sep-16 01:00N 43°36' W 003°48'5311.1
2017-Sep-15 20:13N 43°38' W 005°01'210.9
2017-Sep-15 20:00N 43°38' W 005°04'611.0
2017-Sep-15 19:29N 43°38' W 005°12'1 2.4
2017-Sep-15 18:56N 43°38' W 005°14'0 0.8
2017-Sep-15 18:23N 43°39' W 005°14'0 0.5
2017-Sep-15 18:00N 43°39' W 005°14'5 9.7
2017-Sep-15 17:30N 43°38' W 005°21'611.3
2017-Sep-15 17:00N 43°37' W 005°28'611.2
2017-Sep-15 16:30N 43°35' W 005°36'4 8.6
2017-Sep-15 16:00N 43°33' W 005°41'0 0.1
2017-Sep-15 15:24N 43°33' W 005°41'0 0.0
2017-Sep-15 15:00N 43°33' W 005°41'0 0.0
2017-Sep-15 14:30N 43°33' W 005°41'0 0.0
2017-Sep-15 14:00N 43°33' W 005°41'0 0.0
2017-Sep-15 13:29N 43°33' W 005°41'0 0.0
2017-Sep-15 12:53N 43°33' W 005°41'0 0.0
2017-Sep-15 12:29N 43°33' W 005°41'0 0.0
2017-Sep-15 11:59N 43°33' W 005°41'0 0.0
2017-Sep-15 11:22N 43°33' W 005°41'0 0.0
2017-Sep-15 10:28N 43°33' W 005°41'0 0.0
2017-Sep-15 09:58N 43°33' W 005°41'0 0.0
2017-Sep-15 09:28N 43°33' W 005°41'0 0.0
2017-Sep-15 08:57N 43°33' W 005°41'0 0.0
2017-Sep-15 08:27N 43°33' W 005°41'0 0.0
2017-Sep-15 07:57N 43°33' W 005°41'0 0.0
2017-Sep-15 07:27N 43°33' W 005°41'0 0.0
2017-Sep-15 06:44N 43°33' W 005°41'0 0.0
2017-Sep-15 06:20N 43°33' W 005°41'0 0.0
2017-Sep-15 05:56N 43°33' W 005°41'0 0.1
2017-Sep-15 05:26N 43°33' W 005°41'1 3.0
2017-Sep-15 05:00N 43°34' W 005°40'3 5.3
2017-Sep-15 04:28N 43°37' W 005°42'0 0.1
2017-Sep-15 03:52N 43°37' W 005°42'0 0.1
2017-Sep-15 03:27N 43°37' W 005°42'0 0.1
2017-Sep-15 02:57N 43°37' W 005°42'0 0.0
2017-Sep-15 02:27N 43°37' W 005°42'0 0.0
2017-Sep-14 20:36N 43°37' W 005°42'0 0.1
2017-Sep-14 20:30N 43°37' W 005°42'0 0.1
2017-Sep-14 20:00N 43°37' W 005°42'2 4.0
2017-Sep-14 19:30N 43°39' W 005°43'713.6
2017-Sep-14 19:01N 43°43' W 005°50'713.5
2017-Sep-14 18:30N 43°44' W 005°60'611.9
2017-Sep-14 17:59N 43°44' W 006°08'612.1
2017-Sep-14 17:30N 43°45' W 006°16'612.0
2017-Sep-14 16:58N 43°45' W 006°25'275 7.6
2017-Sep-13 04:36N 39°51' W 009°38'215.3
2017-Sep-13 04:30N 39°50' W 009°39'1215.1
2017-Sep-13 03:41N 39°38' W 009°42'315.3
2017-Sep-13 03:30N 39°35' W 009°43'815.1
2017-Sep-13 03:00N 39°28' W 009°45'714.7
2017-Sep-13 02:30N 39°20' W 009°46'714.5
2017-Sep-13 02:00N 39°13' W 009°47'714.5
2017-Sep-13 01:30N 39°06' W 009°48'714.6
2017-Sep-13 01:00N 38°59' W 009°49'714.7
2017-Sep-13 00:30N 38°51' W 009°51'714.2
2017-Sep-13 00:00N 38°44' W 009°51'713.8
2017-Sep-12 23:30N 38°38' W 009°49'713.9
2017-Sep-12 23:01N 38°32' W 009°43'714.4
2017-Sep-12 22:30N 38°27' W 009°37'714.6
2017-Sep-12 22:00N 38°22' W 009°30'714.3
2017-Sep-12 21:30N 38°17' W 009°23'714.5
2017-Sep-12 21:00N 38°12' W 009°17'714.7
2017-Sep-12 20:30N 38°07' W 009°10'714.8
2017-Sep-12 20:00N 38°02' W 009°03'714.6
2017-Sep-12 19:30N 37°57' W 008°57'5 9.8
2017-Sep-12 19:00N 37°56' W 008°51'1 1.0
2017-Sep-12 18:30N 37°56' W 008°51'0 0.0
2017-Sep-12 18:00N 37°56' W 008°51'0 0.0
2017-Sep-12 17:30N 37°56' W 008°51'0 0.0
2017-Sep-12 17:00N 37°56' W 008°51'0 0.0
2017-Sep-12 16:30N 37°56' W 008°51'0 0.0
2017-Sep-12 16:00N 37°56' W 008°51'0 0.0
2017-Sep-12 15:30N 37°56' W 008°51'1 2.3
2017-Sep-12 15:00N 37°55' W 008°50'611.2
2017-Sep-12 14:30N 37°50' W 008°54'815.8
2017-Sep-12 14:00N 37°44' W 008°60'816.0
2017-Sep-12 13:30N 37°38' W 009°06'815.9
2017-Sep-12 13:00N 37°31' W 009°12'815.8
2017-Sep-12 12:30N 37°25' W 009°19'915.9
2017-Sep-12 11:55N 37°18' W 009°26'7115.5
2017-Sep-12 07:21N 36°24' W 010°23'715.4
2017-Sep-12 06:54N 36°19' W 010°28'615.3
2017-Sep-12 06:29N 36°14' W 010°33'915.3
2017-Sep-12 05:55N 36°07' W 010°40'615.3
2017-Sep-12 05:30N 36°02' W 010°45'815.3
2017-Sep-12 04:59N 35°55' W 010°50'2215.2
2017-Sep-12 03:34N 35°36' W 011°02'115.4
2017-Sep-12 03:30N 35°35' W 011°03'1015.4
2017-Sep-12 02:52N 35°26' W 011°08'515.4
2017-Sep-12 02:30N 35°22' W 011°11'815.3
2017-Sep-12 02:00N 35°15' W 011°16'815.1
2017-Sep-12 01:30N 35°08' W 011°21'4215.4
2017-Sep-11 22:45N 34°32' W 011°47'515.5
2017-Sep-11 22:27N 34°28' W 011°50'715.5
2017-Sep-11 22:00N 34°22' W 011°55'715.3
2017-Sep-11 21:30N 34°15' W 011°59'815.5
2017-Sep-11 21:00N 34°09' W 012°04'815.5
2017-Sep-11 20:30N 34°02' W 012°09'815.5
2017-Sep-11 20:00N 33°55' W 012°13'815.5
2017-Sep-11 19:30N 33°49' W 012°18'1315.6
2017-Sep-11 18:40N 33°37' W 012°26'315.6
2017-Sep-11 18:30N 33°35' W 012°27'30315.7
2017-Sep-10 23:10N 29°10' W 015°19'516.3
2017-Sep-10 22:53N 29°06' W 015°22'616.4
2017-Sep-10 22:31N 29°01' W 015°25'816.4
2017-Sep-10 22:00N 28°54' W 015°30'816.5
2017-Sep-10 21:30N 28°46' W 015°35'816.5
2017-Sep-10 21:00N 28°39' W 015°39'816.3
2017-Sep-10 20:30N 28°32' W 015°44'816.0
2017-Sep-10 20:00N 28°26' W 015°50'714.2
2017-Sep-10 19:30N 28°22' W 015°56'816.2
2017-Sep-10 19:00N 28°24' W 016°05'916.0
2017-Sep-10 18:27N 28°28' W 016°14'  
Track history (hours):
 
Tides and Currents Weather Stations Pressure Air Temp Water Temp Dewpoint Dewpoint Depression Visibility Wind Speed Wind Dir Waves Ship Positions

Wec Goya

Last reported at 2017-Sep-20 07:35 UTC. Time now 2017-Sep-23 16:31 UTC.
Position N 34°24' W 007°56'.

Length 135 m; draft 7.9 m.

Type: Ship. MMSI: 255805937.

Date/timePositionNaut miles runAvg speedWind from/ knotsBaromVisibWave heightAir tempDewpointWater temp
2017-Sep-20 07:35N 34°24' W 007°56'114.3
2017-Sep-20 07:30N 34°25' W 007°56'1214.2
2017-Sep-20 06:39N 34°36' W 008°02'214.5
2017-Sep-20 06:30N 34°38' W 008°03'6214.4
2017-Sep-20 02:11N 35°35' W 008°33'313.9
2017-Sep-20 02:00N 35°37' W 008°35'714.0
2017-Sep-20 01:30N 35°44' W 008°38'1114.1
2017-Sep-20 00:46N 35°53' W 008°43'514.1
2017-Sep-20 00:26N 35°57' W 008°46'714.0
2017-Sep-19 23:57N 36°03' W 008°50'1013.8
2017-Sep-19 23:12N 36°13' W 008°55'714.1
2017-Sep-19 22:44N 36°19' W 008°58'314.1
2017-Sep-19 22:30N 36°22' W 008°60'714.3
2017-Sep-19 22:00N 36°29' W 009°03'713.4
2017-Sep-19 21:30N 36°32' W 009°11'1413.6
2017-Sep-19 20:28N 36°40' W 009°24'1613.7
2017-Sep-19 19:18N 36°55' W 009°34'513.3
2017-Sep-19 18:58N 36°59' W 009°34'613.9
2017-Sep-19 18:30N 37°05' W 009°30'713.7
2017-Sep-19 17:58N 37°11' W 009°26'613.6
2017-Sep-19 17:30N 37°17' W 009°22'713.8
2017-Sep-19 16:59N 37°23' W 009°17'713.9
2017-Sep-19 16:30N 37°28' W 009°12'714.6
2017-Sep-19 16:00N 37°35' W 009°08'917.0
2017-Sep-19 15:30N 37°42' W 009°02'817.0
2017-Sep-19 15:01N 37°49' W 008°56'816.0
2017-Sep-19 14:30N 37°55' W 008°50'0 0.9
2017-Sep-19 13:59N 37°56' W 008°51'0 0.0
2017-Sep-19 13:29N 37°56' W 008°51'0 0.0
2017-Sep-19 12:59N 37°56' W 008°51'0 0.0
2017-Sep-19 12:29N 37°56' W 008°51'0 0.0
2017-Sep-19 11:58N 37°56' W 008°51'0 0.0
2017-Sep-19 11:28N 37°56' W 008°51'0 0.0
2017-Sep-19 10:58N 37°56' W 008°51'0 0.0
2017-Sep-19 10:28N 37°56' W 008°51'0 0.0
2017-Sep-19 10:00N 37°56' W 008°51'0 0.0
2017-Sep-19 09:30N 37°56' W 008°51'0 0.0
2017-Sep-19 09:01N 37°56' W 008°51'0 0.4
2017-Sep-19 08:31N 37°56' W 008°51'2 3.8
2017-Sep-19 08:01N 37°54' W 008°51'3 6.5
2017-Sep-19 07:30N 37°56' W 008°55'816.6
2017-Sep-19 07:00N 38°02' W 009°02'816.7
2017-Sep-19 06:30N 38°08' W 009°09'917.2
2017-Sep-19 06:00N 38°15' W 009°16'917.0
2017-Sep-19 05:30N 38°21' W 009°23'817.0
2017-Sep-19 05:00N 38°28' W 009°30'816.2
2017-Sep-19 04:31N 38°34' W 009°37'816.6
2017-Sep-19 04:00N 38°41' W 009°42'917.1
2017-Sep-19 03:30N 38°50' W 009°43'816.8
2017-Sep-19 03:00N 38°58' W 009°44'816.6
2017-Sep-19 02:31N 39°06' W 009°45'816.2
2017-Sep-19 02:00N 39°14' W 009°45'816.3
2017-Sep-19 01:31N 39°22' W 009°45'816.6
2017-Sep-19 01:01N 39°31' W 009°44'816.7
2017-Sep-19 00:30N 39°39' W 009°42'288 6.6
2017-Sep-17 05:07N 43°46' W 006°25'111.8
2017-Sep-17 05:00N 43°46' W 006°23'611.7
2017-Sep-17 04:30N 43°46' W 006°15'612.0
2017-Sep-17 04:00N 43°46' W 006°06'611.8
2017-Sep-17 03:30N 43°45' W 005°58'611.8
2017-Sep-17 03:00N 43°44' W 005°50'611.8
2017-Sep-17 02:30N 43°44' W 005°42'611.6
2017-Sep-17 02:00N 43°43' W 005°34'611.5
2017-Sep-17 01:30N 43°43' W 005°26'611.5
2017-Sep-17 01:00N 43°42' W 005°18'7411.4
2017-Sep-16 18:32N 43°33' W 003°37'011.0
2017-Sep-16 18:29N 43°33' W 003°36'511.1
2017-Sep-16 18:00N 43°33' W 003°29'611.3
2017-Sep-16 17:30N 43°32' W 003°21'611.5
2017-Sep-16 17:00N 43°29' W 003°15'611.8
2017-Sep-16 16:30N 43°25' W 003°08'611.3
2017-Sep-16 16:00N 43°21' W 003°03'0 0.8
2017-Sep-16 15:28N 43°21' W 003°03'0 0.0
2017-Sep-16 14:58N 43°21' W 003°03'0 0.0
2017-Sep-16 14:28N 43°21' W 003°03'0 0.0
2017-Sep-16 14:00N 43°21' W 003°03'0 0.0
2017-Sep-16 13:30N 43°21' W 003°03'0 0.0
2017-Sep-16 13:00N 43°21' W 003°03'0 0.0
2017-Sep-16 12:30N 43°21' W 003°03'0 0.0
2017-Sep-16 11:59N 43°21' W 003°03'0 0.0
2017-Sep-16 11:29N 43°21' W 003°03'0 0.0
2017-Sep-16 10:59N 43°21' W 003°03'0 0.0
2017-Sep-16 10:29N 43°21' W 003°03'0 0.0
2017-Sep-16 09:59N 43°21' W 003°03'0 0.0
2017-Sep-16 09:28N 43°21' W 003°03'0 0.0
2017-Sep-16 08:58N 43°21' W 003°03'0 0.0
2017-Sep-16 08:28N 43°21' W 003°03'0 0.0
2017-Sep-16 07:58N 43°21' W 003°03'0 0.0
2017-Sep-16 07:31N 43°21' W 003°03'0 0.0
2017-Sep-16 07:00N 43°21' W 003°03'0 0.0
2017-Sep-16 06:30N 43°21' W 003°03'0 0.0
2017-Sep-16 06:00N 43°21' W 003°03'0 0.0
2017-Sep-16 05:30N 43°21' W 003°03'0 0.0
2017-Sep-16 05:00N 43°21' W 003°03'0 0.4
2017-Sep-16 04:31N 43°21' W 003°03'4 7.3
2017-Sep-16 04:00N 43°24' W 003°06'612.6
2017-Sep-16 03:30N 43°29' W 003°12'611.7
2017-Sep-16 03:00N 43°32' W 003°18'611.0
2017-Sep-16 02:30N 43°35' W 003°24'611.3
2017-Sep-16 02:00N 43°35' W 003°32'611.4
2017-Sep-16 01:30N 43°36' W 003°40'611.5
2017-Sep-16 01:00N 43°36' W 003°48'5311.1
2017-Sep-15 20:13N 43°38' W 005°01'210.9
2017-Sep-15 20:00N 43°38' W 005°04'611.0
2017-Sep-15 19:29N 43°38' W 005°12'1 2.4
2017-Sep-15 18:56N 43°38' W 005°14'0 0.8
2017-Sep-15 18:23N 43°39' W 005°14'0 0.5
2017-Sep-15 18:00N 43°39' W 005°14'5 9.7
2017-Sep-15 17:30N 43°38' W 005°21'611.3
2017-Sep-15 17:00N 43°37' W 005°28'611.2
2017-Sep-15 16:30N 43°35' W 005°36'4 8.6
2017-Sep-15 16:00N 43°33' W 005°41'0 0.1
2017-Sep-15 15:24N 43°33' W 005°41'0 0.0
2017-Sep-15 15:00N 43°33' W 005°41'0 0.0
2017-Sep-15 14:30N 43°33' W 005°41'0 0.0
2017-Sep-15 14:00N 43°33' W 005°41'0 0.0
2017-Sep-15 13:29N 43°33' W 005°41'0 0.0
2017-Sep-15 12:53N 43°33' W 005°41'0 0.0
2017-Sep-15 12:29N 43°33' W 005°41'0 0.0
2017-Sep-15 11:59N 43°33' W 005°41'0 0.0
2017-Sep-15 11:22N 43°33' W 005°41'0 0.0
2017-Sep-15 10:28N 43°33' W 005°41'0 0.0
2017-Sep-15 09:58N 43°33' W 005°41'0 0.0
2017-Sep-15 09:28N 43°33' W 005°41'0 0.0
2017-Sep-15 08:57N 43°33' W 005°41'0 0.0
2017-Sep-15 08:27N 43°33' W 005°41'0 0.0
2017-Sep-15 07:57N 43°33' W 005°41'0 0.0
2017-Sep-15 07:27N 43°33' W 005°41'0 0.0
2017-Sep-15 06:44N 43°33' W 005°41'0 0.0
2017-Sep-15 06:20N 43°33' W 005°41'0 0.0
2017-Sep-15 05:56N 43°33' W 005°41'0 0.1
2017-Sep-15 05:26N 43°33' W 005°41'1 3.0
2017-Sep-15 05:00N 43°34' W 005°40'3 5.3
2017-Sep-15 04:28N 43°37' W 005°42'0 0.1
2017-Sep-15 03:52N 43°37' W 005°42'0 0.1
2017-Sep-15 03:27N 43°37' W 005°42'0 0.1
2017-Sep-15 02:57N 43°37' W 005°42'0 0.0
2017-Sep-15 02:27N 43°37' W 005°42'0 0.0
2017-Sep-14 20:36N 43°37' W 005°42'0 0.1
2017-Sep-14 20:30N 43°37' W 005°42'0 0.1
2017-Sep-14 20:00N 43°37' W 005°42'2 4.0
2017-Sep-14 19:30N 43°39' W 005°43'713.6
2017-Sep-14 19:01N 43°43' W 005°50'713.5
2017-Sep-14 18:30N 43°44' W 005°60'611.9
2017-Sep-14 17:59N 43°44' W 006°08'612.1
2017-Sep-14 17:30N 43°45' W 006°16'612.0
2017-Sep-14 16:58N 43°45' W 006°25'275 7.6
2017-Sep-13 04:36N 39°51' W 009°38'215.3
2017-Sep-13 04:30N 39°50' W 009°39'1215.1
2017-Sep-13 03:41N 39°38' W 009°42'315.3
2017-Sep-13 03:30N 39°35' W 009°43'815.1
2017-Sep-13 03:00N 39°28' W 009°45'714.7
2017-Sep-13 02:30N 39°20' W 009°46'714.5
2017-Sep-13 02:00N 39°13' W 009°47'714.5
2017-Sep-13 01:30N 39°06' W 009°48'714.6
2017-Sep-13 01:00N 38°59' W 009°49'714.7
2017-Sep-13 00:30N 38°51' W 009°51'714.2
2017-Sep-13 00:00N 38°44' W 009°51'713.8
2017-Sep-12 23:30N 38°38' W 009°49'713.9
2017-Sep-12 23:01N 38°32' W 009°43'714.4
2017-Sep-12 22:30N 38°27' W 009°37'714.6
2017-Sep-12 22:00N 38°22' W 009°30'714.3
2017-Sep-12 21:30N 38°17' W 009°23'714.5
2017-Sep-12 21:00N 38°12' W 009°17'714.7
2017-Sep-12 20:30N 38°07' W 009°10'714.8
2017-Sep-12 20:00N 38°02' W 009°03'714.6
2017-Sep-12 19:30N 37°57' W 008°57'5 9.8
2017-Sep-12 19:00N 37°56' W 008°51'1 1.0
2017-Sep-12 18:30N 37°56' W 008°51'0 0.0
2017-Sep-12 18:00N 37°56' W 008°51'0 0.0
2017-Sep-12 17:30N 37°56' W 008°51'0 0.0
2017-Sep-12 17:00N 37°56' W 008°51'0 0.0
2017-Sep-12 16:30N 37°56' W 008°51'0 0.0
2017-Sep-12 16:00N 37°56' W 008°51'0 0.0
2017-Sep-12 15:30N 37°56' W 008°51'1 2.3
2017-Sep-12 15:00N 37°55' W 008°50'611.2
2017-Sep-12 14:30N 37°50' W 008°54'815.8
2017-Sep-12 14:00N 37°44' W 008°60'816.0
2017-Sep-12 13:30N 37°38' W 009°06'815.9
2017-Sep-12 13:00N 37°31' W 009°12'815.8
2017-Sep-12 12:30N 37°25' W 009°19'915.9
2017-Sep-12 11:55N 37°18' W 009°26'7115.5
2017-Sep-12 07:21N 36°24' W 010°23'715.4
2017-Sep-12 06:54N 36°19' W 010°28'615.3
2017-Sep-12 06:29N 36°14' W 010°33'915.3
2017-Sep-12 05:55N 36°07' W 010°40'615.3
2017-Sep-12 05:30N 36°02' W 010°45'815.3
2017-Sep-12 04:59N 35°55' W 010°50'2215.2
2017-Sep-12 03:34N 35°36' W 011°02'115.4
2017-Sep-12 03:30N 35°35' W 011°03'1015.4
2017-Sep-12 02:52N 35°26' W 011°08'515.4
2017-Sep-12 02:30N 35°22' W 011°11'815.3
2017-Sep-12 02:00N 35°15' W 011°16'815.1
2017-Sep-12 01:30N 35°08' W 011°21'4215.4
2017-Sep-11 22:45N 34°32' W 011°47'515.5
2017-Sep-11 22:27N 34°28' W 011°50'715.5
2017-Sep-11 22:00N 34°22' W 011°55'715.3
2017-Sep-11 21:30N 34°15' W 011°59'815.5
2017-Sep-11 21:00N 34°09' W 012°04'815.5
2017-Sep-11 20:30N 34°02' W 012°09'815.5
2017-Sep-11 20:00N 33°55' W 012°13'815.5
2017-Sep-11 19:30N 33°49' W 012°18'1315.6
2017-Sep-11 18:40N 33°37' W 012°26'315.6
2017-Sep-11 18:30N 33°35' W 012°27'30315.7
2017-Sep-10 23:10N 29°10' W 015°19'516.3
2017-Sep-10 22:53N 29°06' W 015°22'616.4
2017-Sep-10 22:31N 29°01' W 015°25'816.4
2017-Sep-10 22:00N 28°54' W 015°30'816.5
2017-Sep-10 21:30N 28°46' W 015°35'816.5
2017-Sep-10 21:00N 28°39' W 015°39'816.3
2017-Sep-10 20:30N 28°32' W 015°44'816.0
2017-Sep-10 20:00N 28°26' W 015°50'714.2
2017-Sep-10 19:30N 28°22' W 015°56'816.2
2017-Sep-10 19:00N 28°24' W 016°05'916.0
2017-Sep-10 18:27N 28°28' W 016°14'  

Dump ship's entire track history